createdAt,value
2023-05-01T00:00:38.345Z,23.25
2023-05-01T00:03:06.819Z,29.20
2023-05-01T00:05:34.787Z,29.17
2023-05-01T00:08:03.573Z,32.70
2023-05-01T00:10:31.818Z,26.73
2023-05-01T00:12:59.735Z,31.85
2023-05-01T00:15:27.661Z,23.83
2023-05-01T00:17:55.818Z,29.25
2023-05-01T00:20:28.324Z,37.47
2023-05-01T00:22:56.723Z,29.88
2023-05-01T00:25:24.729Z,29.40
2023-05-01T00:27:52.682Z,37.53
2023-05-01T00:30:21.012Z,33.03
2023-05-01T00:32:48.988Z,49.97
2023-05-01T00:35:17.038Z,36.85
2023-05-01T00:37:45.168Z,42.55
2023-05-01T00:40:13.146Z,49.83
2023-05-01T00:42:41.028Z,36.67
2023-05-01T00:45:09.933Z,40.50
2023-05-01T00:47:38.919Z,38.33
2023-05-01T00:50:07.987Z,39.53
2023-05-01T00:52:36.443Z,42.50
2023-05-01T00:55:05.520Z,55.88
2023-05-01T00:57:33.855Z,40.20
2023-05-01T01:00:01.978Z,51.03
2023-05-01T01:02:29.965Z,37.28
2023-05-01T01:04:58.400Z,46.55
2023-05-01T01:08:08.099Z,44.03
2023-05-01T01:10:47.116Z,46.13
2023-05-01T01:13:34.142Z,34.30
2023-05-01T01:16:19.571Z,56.38
2023-05-01T01:19:19.470Z,39.33
2023-05-01T01:21:55.457Z,46.42
2023-05-01T01:25:20.551Z,41.70
2023-05-01T01:28:25.858Z,46.83
2023-05-01T01:31:21.581Z,59.00
2023-05-01T01:33:51.743Z,43.47
2023-05-01T01:36:48.308Z,46.58
2023-05-01T01:39:21.214Z,55.00
2023-05-01T01:41:53.653Z,47.92
2023-05-01T01:44:40.372Z,51.25
2023-05-01T01:47:12.445Z,41.47
2023-05-01T01:49:47.211Z,49.65
2023-05-01T01:52:17.440Z,61.28
2023-05-01T01:55:13.526Z,44.53
2023-05-01T01:57:45.166Z,44.13
2023-05-01T02:00:16.568Z,52.35
2023-05-01T02:02:49.089Z,46.20
2023-05-01T02:05:19.562Z,41.25
2023-05-01T02:07:50.372Z,47.97
2023-05-01T02:10:19.819Z,51.95
2023-05-01T02:12:51.142Z,52.13
2023-05-01T02:15:21.179Z,56.60
2023-05-01T02:17:51.430Z,58.47
2023-05-01T02:20:21.698Z,44.85
2023-05-01T02:22:53.650Z,50.33
2023-05-01T02:25:22.311Z,45.40
2023-05-01T02:28:01.039Z,54.38
2023-05-01T02:30:29.283Z,37.30
2023-05-01T02:32:58.007Z,46.17
2023-05-01T02:35:26.467Z,32.65
2023-05-01T02:37:54.427Z,49.42
2023-05-01T02:40:22.557Z,44.35
2023-05-01T02:42:53.397Z,47.83
2023-05-01T02:45:25.357Z,44.03
2023-05-01T02:48:00.115Z,57.97
2023-05-01T02:50:28.876Z,61.83
2023-05-01T02:52:58.589Z,53.08
2023-05-01T02:55:37.772Z,61.10
2023-05-01T02:58:05.713Z,42.85
2023-05-01T03:00:33.690Z,48.92
2023-05-01T03:03:01.991Z,48.63
2023-05-01T03:05:30.164Z,46.42
2023-05-01T03:07:58.087Z,57.17
2023-05-01T03:10:26.439Z,46.22
2023-05-01T03:12:54.285Z,50.70
2023-05-01T03:15:22.342Z,42.92
2023-05-01T03:17:50.783Z,45.63
2023-05-01T03:20:18.712Z,43.20
2023-05-01T03:22:46.629Z,36.33
2023-05-01T03:25:15.282Z,42.95
2023-05-01T03:27:43.195Z,43.15
2023-05-01T03:30:13.118Z,43.80
2023-05-01T03:32:43.100Z,34.47
2023-05-01T03:35:19.368Z,40.83
2023-05-01T03:37:47.891Z,42.10
2023-05-01T03:40:26.256Z,41.38
2023-05-01T03:43:13.064Z,42.97
2023-05-01T03:45:42.263Z,34.22
2023-05-01T03:48:14.186Z,47.45
2023-05-01T03:50:42.949Z,49.83
2023-05-01T03:53:11.991Z,38.42
2023-05-01T03:55:40.701Z,37.92
2023-05-01T03:58:09.032Z,34.90
2023-05-01T04:00:37.825Z,44.60
2023-05-01T04:03:06.080Z,32.00
2023-05-01T04:05:36.168Z,27.13
2023-05-01T04:08:04.808Z,29.15
2023-05-01T04:10:33.271Z,22.73
2023-05-01T04:13:07.032Z,33.83
2023-05-01T04:15:36.470Z,36.87
2023-05-01T04:18:04.825Z,32.55
2023-05-01T04:20:34.188Z,23.23
2023-05-01T04:23:02.235Z,30.88
2023-05-01T04:25:30.259Z,26.48
2023-05-01T04:28:12.379Z,25.52
2023-05-01T04:30:40.424Z,22.02
2023-05-01T04:33:11.747Z,23.90
2023-05-01T04:35:43.850Z,21.27
2023-05-01T04:38:12.118Z,16.63
2023-05-01T04:40:41.893Z,18.10
2023-05-01T04:43:11.458Z,14.75
2023-05-01T04:45:40.024Z,21.90
2023-05-01T04:48:08.352Z,13.23
2023-05-01T04:50:37.905Z,15.65
2023-05-01T04:53:06.039Z,10.77
2023-05-01T04:55:36.603Z,11.75
2023-05-01T04:58:13.285Z,12.38
2023-05-01T05:00:41.765Z,10.35
2023-05-01T05:03:12.542Z,9.80
2023-05-01T05:05:40.762Z,10.15
2023-05-01T05:08:09.471Z,10.75
2023-05-01T05:10:40.932Z,13.82
2023-05-01T05:13:22.188Z,13.15
2023-05-01T05:15:58.067Z,12.38
2023-05-01T05:18:27.573Z,11.55
2023-05-01T05:20:56.456Z,13.02
2023-05-01T05:23:24.916Z,14.25
2023-05-01T05:25:53.041Z,16.17
2023-05-01T05:28:21.272Z,15.02
2023-05-01T05:30:49.565Z,11.60
2023-05-01T05:33:20.918Z,8.95
2023-05-01T05:35:49.288Z,11.82
2023-05-01T05:38:17.918Z,12.60
2023-05-01T05:40:48.928Z,8.63
2023-05-01T05:43:17.271Z,17.65
2023-05-01T05:45:46.072Z,9.07
2023-05-01T05:48:14.616Z,5.97
2023-05-01T05:50:42.719Z,6.85
2023-05-01T05:53:13.938Z,6.22
2023-05-01T05:55:46.891Z,9.90
2023-05-01T05:58:20.147Z,7.35
2023-05-01T06:00:51.048Z,8.10
2023-05-01T06:03:20.255Z,8.23
2023-05-01T06:05:49.112Z,7.25
2023-05-01T06:08:17.413Z,4.78
2023-05-01T06:10:45.483Z,8.65
2023-05-01T06:13:14.877Z,6.57
2023-05-01T06:15:49.450Z,5.25
2023-05-01T06:18:17.867Z,5.40
2023-05-01T06:20:47.356Z,7.50
2023-05-01T06:23:16.749Z,5.03
2023-05-01T06:26:05.094Z,9.60
2023-05-01T06:28:33.840Z,5.53
2023-05-01T06:31:02.090Z,6.93
2023-05-01T06:33:34.897Z,5.28
2023-05-01T06:36:13.760Z,5.45
2023-05-01T06:38:48.786Z,5.85
2023-05-01T06:41:17.401Z,5.18
2023-05-01T06:43:46.935Z,7.85
2023-05-01T06:46:17.604Z,5.15
2023-05-01T06:48:46.389Z,5.32
2023-05-01T06:51:16.252Z,5.40
2023-05-01T06:53:44.425Z,3.75
2023-05-01T06:56:12.401Z,6.45
2023-05-01T06:58:40.555Z,6.70
2023-05-01T07:01:09.934Z,5.00
2023-05-01T07:03:37.928Z,6.50
2023-05-01T07:06:06.444Z,6.25
2023-05-01T07:08:34.620Z,5.18
2023-05-01T07:11:03.073Z,5.65
2023-05-01T07:13:32.013Z,6.68
2023-05-01T07:16:03.798Z,5.35
2023-05-01T07:18:32.052Z,6.63
2023-05-01T07:20:59.951Z,4.78
2023-05-01T07:23:27.984Z,9.80
2023-05-01T07:25:58.597Z,8.02
2023-05-01T07:28:26.740Z,5.23
2023-05-01T07:30:54.826Z,5.35
2023-05-01T07:33:27.343Z,6.07
2023-05-01T07:35:55.510Z,6.10
2023-05-01T07:38:23.891Z,6.32
2023-05-01T07:40:54.009Z,6.60
2023-05-01T07:43:22.595Z,4.53
2023-05-01T07:46:00.813Z,6.07
2023-05-01T07:48:29.139Z,4.25
2023-05-01T07:50:57.282Z,6.68
2023-05-01T07:53:25.645Z,7.75
2023-05-01T07:55:53.604Z,10.18
2023-05-01T07:58:21.600Z,6.43
2023-05-01T08:00:49.810Z,5.35
2023-05-01T08:03:18.333Z,5.22
2023-05-01T08:05:46.554Z,6.00
2023-05-01T08:08:20.960Z,5.45
2023-05-01T08:10:49.477Z,5.30
2023-05-01T08:13:17.689Z,8.00
2023-05-01T08:15:48.103Z,5.88
2023-05-01T08:18:20.627Z,5.78
2023-05-01T08:20:49.893Z,5.40
2023-05-01T08:23:18.749Z,6.32
2023-05-01T08:25:47.065Z,6.78
2023-05-01T08:28:21.587Z,6.88
2023-05-01T08:30:49.631Z,6.35
2023-05-01T08:33:18.115Z,6.03
2023-05-01T08:35:46.182Z,4.03
2023-05-01T08:38:14.246Z,9.25
2023-05-01T08:40:48.674Z,7.90
2023-05-01T08:43:17.389Z,5.30
2023-05-01T08:45:49.003Z,4.90
2023-05-01T08:48:20.989Z,5.25
2023-05-01T08:50:49.751Z,6.57
2023-05-01T08:53:21.045Z,7.43
2023-05-01T08:55:50.887Z,9.80
2023-05-01T08:58:22.325Z,7.55
2023-05-01T09:00:50.626Z,5.53
2023-05-01T09:03:19.668Z,5.65
2023-05-01T09:05:48.093Z,8.68
2023-05-01T09:08:16.463Z,6.53
2023-05-01T09:10:48.537Z,4.18
2023-05-01T09:13:16.843Z,4.85
2023-05-01T09:15:45.275Z,8.20
2023-05-01T09:18:13.644Z,5.00
2023-05-01T09:20:42.661Z,5.70
2023-05-01T09:23:11.634Z,6.30
2023-05-01T09:25:39.736Z,4.28
2023-05-01T09:28:07.761Z,6.30
2023-05-01T09:30:40.071Z,7.30
2023-05-01T09:33:13.981Z,3.22
2023-05-01T09:35:59.856Z,7.15
2023-05-01T09:38:29.731Z,6.18
2023-05-01T09:41:06.139Z,5.70
2023-05-01T09:43:34.541Z,5.97
2023-05-01T09:46:11.946Z,7.18
2023-05-01T09:48:57.910Z,5.03
2023-05-01T09:51:27.697Z,4.60
2023-05-01T09:54:06.123Z,2.60
2023-05-01T09:56:46.575Z,8.90
2023-05-01T09:59:21.584Z,6.15
2023-05-01T10:01:50.952Z,9.65
2023-05-01T10:04:34.700Z,4.15
2023-05-01T10:07:15.511Z,4.93
2023-05-01T10:09:43.776Z,6.53
2023-05-01T10:12:23.273Z,6.25
2023-05-01T10:14:56.106Z,5.13
2023-05-01T10:17:24.685Z,5.32
2023-05-01T10:19:53.299Z,5.95
2023-05-01T10:22:22.151Z,4.90
2023-05-01T10:24:50.723Z,5.10
2023-05-01T10:27:20.011Z,3.38
2023-05-01T10:29:49.525Z,6.97
2023-05-01T10:32:17.675Z,4.15
2023-05-01T10:34:58.976Z,4.45
2023-05-01T10:37:48.057Z,4.55
2023-05-01T10:40:44.624Z,6.50
2023-05-01T10:43:30.962Z,3.47
2023-05-01T10:46:08.555Z,6.57
2023-05-01T10:48:39.554Z,3.72
2023-05-01T10:51:20.568Z,6.18
2023-05-01T10:54:10.734Z,3.45
2023-05-01T10:56:38.748Z,3.17
2023-05-01T10:59:06.972Z,2.50
2023-05-01T11:01:44.971Z,7.43
2023-05-01T11:04:22.502Z,3.97
2023-05-01T11:07:19.081Z,6.03
2023-05-01T11:09:59.048Z,5.40
2023-05-01T11:12:45.880Z,4.05
2023-05-01T11:15:34.036Z,4.43
2023-05-01T11:18:04.048Z,4.25
2023-05-01T11:20:37.979Z,6.40
2023-05-01T11:23:08.021Z,4.68
2023-05-01T11:25:36.337Z,6.20
2023-05-01T11:28:07.875Z,6.05
2023-05-01T11:33:10.701Z,4.70
2023-05-01T11:38:16.552Z,4.70
2023-05-01T11:40:45.454Z,4.88
2023-05-01T11:43:13.693Z,3.47
2023-05-01T11:45:41.700Z,4.28
2023-05-01T11:48:19.314Z,4.15
2023-05-01T11:50:47.559Z,3.28
2023-05-01T11:53:16.231Z,8.40
2023-05-01T11:55:45.186Z,5.50
2023-05-01T11:58:13.738Z,4.05
2023-05-01T12:00:44.845Z,2.53
2023-05-01T12:03:15.717Z,4.68
2023-05-01T12:05:45.790Z,4.10
2023-05-01T12:08:20.826Z,5.72
2023-05-01T12:10:52.714Z,4.22
2023-05-01T12:13:21.528Z,4.57
2023-05-01T12:15:53.559Z,6.95
2023-05-01T12:18:22.428Z,8.38
2023-05-01T12:20:54.371Z,10.52
2023-05-01T12:23:38.220Z,4.05
2023-05-01T12:26:28.171Z,6.80
2023-05-01T12:29:05.374Z,6.88
2023-05-01T12:31:34.217Z,15.90
2023-05-01T12:34:07.880Z,2.67
2023-05-01T12:36:37.798Z,22.23
2023-05-01T12:39:14.849Z,28.23
2023-05-01T12:41:49.124Z,3.80
2023-05-01T12:44:28.328Z,4.10
2023-05-01T12:47:08.070Z,3.92
2023-05-01T12:49:38.133Z,3.15
2023-05-01T12:52:09.161Z,4.13
2023-05-01T12:54:40.942Z,4.80
2023-05-01T12:57:12.230Z,6.25
2023-05-01T13:02:15.056Z,4.82
2023-05-01T13:04:49.621Z,8.80
2023-05-01T13:07:19.551Z,8.60
2023-05-01T13:09:59.428Z,6.68
2023-05-01T13:12:28.880Z,6.20
2023-05-01T13:14:57.699Z,4.15
2023-05-01T13:17:31.537Z,2.72
2023-05-01T13:20:05.341Z,7.50
2023-05-01T13:22:36.223Z,5.43
2023-05-01T13:25:18.445Z,4.05
2023-05-01T13:27:51.597Z,6.43
2023-05-01T13:30:33.302Z,5.25
2023-05-01T13:35:31.768Z,4.43
2023-05-01T13:38:00.750Z,3.03
2023-05-01T13:40:29.013Z,5.70
2023-05-01T13:42:57.163Z,3.35
2023-05-01T13:45:26.560Z,2.20
2023-05-01T13:47:55.587Z,5.78
2023-05-01T13:50:23.774Z,2.28
2023-05-01T13:52:51.866Z,4.70
2023-05-01T13:55:21.887Z,4.25
2023-05-01T13:57:50.066Z,3.80
2023-05-01T14:00:19.242Z,3.10
2023-05-01T14:02:49.577Z,3.30
2023-05-01T14:05:29.175Z,7.18
2023-05-01T14:07:59.386Z,5.93
2023-05-01T14:10:30.114Z,4.25
2023-05-01T14:12:59.637Z,8.05
2023-05-01T14:15:29.884Z,7.05
2023-05-01T14:18:01.180Z,8.43
2023-05-01T14:22:57.229Z,5.43
2023-05-01T14:25:31.389Z,3.40
2023-05-01T14:28:02.385Z,4.35
2023-05-01T14:30:38.606Z,3.97
2023-05-01T14:33:14.036Z,2.80
2023-05-01T14:35:53.602Z,4.75
2023-05-01T14:38:22.896Z,5.15
2023-05-01T14:40:51.058Z,2.47
2023-05-01T14:43:24.267Z,4.68
2023-05-01T14:45:52.851Z,2.67
2023-05-01T14:48:30.023Z,3.45
2023-05-01T14:50:59.514Z,2.70
2023-05-01T14:53:32.945Z,4.68
2023-05-01T14:56:01.426Z,3.33
2023-05-01T14:58:29.875Z,8.40
2023-05-01T15:00:58.372Z,3.05
2023-05-01T15:03:27.721Z,4.72
2023-05-01T15:05:56.961Z,3.60
2023-05-01T15:08:25.212Z,3.17
2023-05-01T15:10:53.739Z,4.70
2023-05-01T15:13:22.383Z,2.00
2023-05-01T15:15:50.685Z,3.50
2023-05-01T15:18:19.310Z,4.47
2023-05-01T15:20:48.759Z,3.72
2023-05-01T15:23:17.050Z,3.13
2023-05-01T15:25:45.795Z,3.92
2023-05-01T15:28:14.479Z,5.95
2023-05-01T15:30:47.608Z,4.43
2023-05-01T15:33:18.814Z,10.40
2023-05-01T15:35:49.052Z,5.88
2023-05-01T15:38:18.244Z,4.30
2023-05-01T15:40:46.844Z,5.78
2023-05-01T15:43:15.195Z,5.97
2023-05-01T15:45:44.931Z,6.55
2023-05-01T15:48:13.353Z,4.43
2023-05-01T15:50:41.745Z,3.95
2023-05-01T15:53:09.871Z,3.17
2023-05-01T15:55:37.810Z,3.85
2023-05-01T15:58:06.117Z,5.32
2023-05-01T16:00:36.118Z,3.42
2023-05-01T16:03:04.764Z,4.93
2023-05-01T16:05:33.089Z,3.67
2023-05-01T16:08:01.820Z,5.60
2023-05-01T16:10:33.340Z,3.17
2023-05-01T16:13:01.815Z,2.35
2023-05-01T16:15:31.358Z,4.55
2023-05-01T16:18:00.268Z,6.93
2023-05-01T16:20:35.254Z,4.35
2023-05-01T16:23:03.603Z,6.63
2023-05-01T16:25:56.592Z,7.13
2023-05-01T16:28:26.459Z,5.07
2023-05-01T16:30:54.443Z,5.78
2023-05-01T16:33:23.645Z,15.10
2023-05-01T16:35:52.466Z,6.65
2023-05-01T16:38:21.748Z,5.22
2023-05-01T16:40:49.845Z,6.30
2023-05-01T16:43:20.107Z,3.72
2023-05-01T16:45:48.376Z,4.32
2023-05-01T16:48:24.243Z,6.15
2023-05-01T16:50:53.353Z,9.57
2023-05-01T16:53:22.376Z,11.38
2023-05-01T16:55:50.608Z,7.40
2023-05-01T16:58:19.440Z,7.80
2023-05-01T17:00:47.707Z,7.10
2023-05-01T17:03:16.288Z,14.32
2023-05-01T17:05:44.996Z,14.57
2023-05-01T17:08:13.128Z,19.63
2023-05-01T17:10:41.299Z,22.00
2023-05-01T17:13:09.478Z,16.63
2023-05-01T17:15:37.865Z,9.68
2023-05-01T17:18:06.272Z,8.07
2023-05-01T17:20:34.559Z,5.15
2023-05-01T17:23:02.800Z,7.35
2023-05-01T17:25:31.149Z,9.48
2023-05-01T17:27:59.358Z,7.07
2023-05-01T17:30:27.690Z,11.35
2023-05-01T17:32:57.375Z,8.98
2023-05-01T17:35:26.646Z,6.43
2023-05-01T17:37:56.368Z,5.28
2023-05-01T17:40:24.449Z,7.65
2023-05-01T17:42:52.927Z,13.65
2023-05-01T17:45:21.222Z,7.05
2023-05-01T17:47:49.157Z,5.70
2023-05-01T17:50:17.461Z,10.75
2023-05-01T17:52:45.783Z,11.10
2023-05-01T17:55:17.119Z,10.55
2023-05-01T17:57:47.327Z,13.73
2023-05-01T18:00:16.466Z,12.43
2023-05-01T18:02:46.650Z,18.23
2023-05-01T18:05:15.425Z,45.10
2023-05-01T18:07:44.307Z,13.68
2023-05-01T18:10:12.668Z,11.68
2023-05-01T18:12:40.860Z,40.90
2023-05-01T18:15:09.963Z,28.48
2023-05-01T18:17:38.144Z,15.00
2023-05-01T18:20:07.770Z,42.22
2023-05-01T18:22:35.999Z,14.23
2023-05-01T18:25:05.488Z,9.82
2023-05-01T18:27:34.182Z,10.60
2023-05-01T18:30:03.530Z,15.55
2023-05-01T18:32:46.225Z,13.73
2023-05-01T18:35:17.485Z,15.35
2023-05-01T18:37:45.851Z,15.68
2023-05-01T18:40:14.889Z,15.43
2023-05-01T18:42:46.902Z,16.58
2023-05-01T18:45:15.081Z,14.73
2023-05-01T18:47:43.464Z,12.30
2023-05-01T18:50:11.860Z,18.10
2023-05-01T18:52:41.873Z,10.43
2023-05-01T18:55:11.827Z,16.70
2023-05-01T18:57:43.836Z,17.23
2023-05-01T19:00:15.856Z,27.60
2023-05-01T19:02:52.523Z,17.05
2023-05-01T19:05:22.902Z,13.43
2023-05-01T19:07:51.575Z,16.65
2023-05-01T19:10:20.520Z,32.67
2023-05-01T19:12:49.518Z,14.63
2023-05-01T19:15:18.046Z,31.60
2023-05-01T19:17:46.342Z,21.25
2023-05-01T19:20:14.633Z,16.80
2023-05-01T19:22:42.724Z,19.65
2023-05-01T19:25:11.152Z,15.32
2023-05-01T19:27:39.212Z,19.45
2023-05-01T19:30:08.250Z,18.23
2023-05-01T19:32:36.561Z,14.90
2023-05-01T19:35:05.488Z,18.05
2023-05-01T19:37:33.666Z,78.63
2023-05-01T19:40:02.065Z,36.35
2023-05-01T19:42:31.707Z,20.73
2023-05-01T19:44:59.783Z,15.93
2023-05-01T19:47:27.965Z,20.63
2023-05-01T19:49:57.747Z,23.55
2023-05-01T19:52:26.464Z,26.50
2023-05-01T19:54:54.717Z,35.90
2023-05-01T19:57:22.907Z,40.50
2023-05-01T19:59:52.933Z,49.05
2023-05-01T20:02:22.428Z,37.83
2023-05-01T20:04:50.732Z,25.20
2023-05-01T20:07:18.884Z,21.13
2023-05-01T20:09:47.638Z,90.25
2023-05-01T20:12:15.831Z,62.72
2023-05-01T20:14:44.727Z,54.33
2023-05-01T20:17:12.849Z,27.67
2023-05-01T20:19:41.080Z,29.05
2023-05-01T20:22:10.715Z,31.60
2023-05-01T20:24:39.236Z,18.98
2023-05-01T20:27:07.427Z,20.67
2023-05-01T20:29:35.645Z,21.60
2023-05-01T20:32:04.032Z,42.15
2023-05-01T20:34:32.769Z,26.02
2023-05-01T20:37:01.027Z,18.25
2023-05-01T20:39:29.815Z,26.67
2023-05-01T20:41:59.561Z,42.15
2023-05-01T20:44:28.037Z,37.15
2023-05-01T20:46:56.445Z,22.27
2023-05-01T20:49:24.943Z,27.08
2023-05-01T20:51:53.208Z,23.83
2023-05-01T20:54:21.430Z,22.83
2023-05-01T20:56:49.516Z,15.88
2023-05-01T20:59:18.010Z,21.27
2023-05-01T21:01:46.150Z,20.48
2023-05-01T21:04:14.554Z,25.20
2023-05-01T21:06:42.821Z,51.05
2023-05-01T21:09:15.177Z,46.53
2023-05-01T21:11:43.503Z,37.47
2023-05-01T21:14:12.387Z,21.15
2023-05-01T21:16:41.606Z,21.33
2023-05-01T21:19:12.965Z,17.02
2023-05-01T21:21:41.029Z,18.17
2023-05-01T21:24:13.005Z,16.33
2023-05-01T21:26:41.357Z,16.27
2023-05-01T21:29:10.189Z,50.42
2023-05-01T21:31:39.389Z,21.00
2023-05-01T21:34:09.213Z,35.97
2023-05-01T21:36:46.985Z,17.35
2023-05-01T21:39:16.794Z,37.28
2023-05-01T21:41:48.695Z,17.27
2023-05-01T21:44:17.409Z,122.90
2023-05-01T21:46:45.611Z,24.73
2023-05-01T21:49:17.096Z,19.67
2023-05-01T21:51:45.239Z,15.82
2023-05-01T21:54:14.556Z,17.67
2023-05-01T21:56:42.926Z,23.60
2023-05-01T21:59:12.275Z,11.48
2023-05-01T22:01:41.826Z,10.98
2023-05-01T22:04:10.054Z,12.20
2023-05-01T22:06:38.348Z,11.05
2023-05-01T22:09:06.522Z,11.20
2023-05-01T22:11:35.237Z,8.48
2023-05-01T22:14:03.297Z,12.45
2023-05-01T22:16:31.490Z,10.05
2023-05-01T22:19:00.548Z,11.82
2023-05-01T22:21:30.874Z,10.63
2023-05-01T22:23:58.960Z,8.38
2023-05-01T22:26:27.105Z,8.77
2023-05-01T22:28:55.469Z,12.80
2023-05-01T22:31:23.697Z,10.52
2023-05-01T22:33:53.517Z,10.82
2023-05-01T22:36:21.667Z,12.07
2023-05-01T22:38:49.666Z,9.73
2023-05-01T22:41:17.720Z,12.52
2023-05-01T22:43:45.849Z,10.32
2023-05-01T22:46:13.791Z,10.88
2023-05-01T22:48:41.931Z,8.45
2023-05-01T22:51:10.075Z,9.27
2023-05-01T22:53:38.143Z,7.53
2023-05-01T22:56:07.103Z,9.07
2023-05-01T22:58:35.345Z,8.40
2023-05-01T23:01:03.615Z,9.88
2023-05-01T23:03:36.488Z,8.35
2023-05-01T23:06:06.613Z,6.43
2023-05-01T23:08:34.535Z,7.22
2023-05-01T23:11:04.716Z,10.07
2023-05-01T23:13:32.805Z,6.60
2023-05-01T23:16:00.828Z,8.38
2023-05-01T23:18:36.700Z,6.07
2023-05-01T23:21:05.406Z,7.55
2023-05-01T23:23:35.819Z,10.57
2023-05-01T23:26:03.866Z,8.48
2023-05-01T23:28:32.149Z,7.18
2023-05-01T23:31:02.682Z,8.70
2023-05-01T23:33:39.467Z,5.28
2023-05-01T23:36:12.466Z,11.88
2023-05-01T23:38:41.198Z,5.55
2023-05-01T23:41:09.473Z,9.65
2023-05-01T23:43:39.074Z,7.60
2023-05-01T23:46:08.133Z,8.02
2023-05-01T23:48:36.334Z,6.88
2023-05-01T23:51:04.615Z,6.97
2023-05-01T23:53:33.021Z,10.50
2023-05-01T23:56:01.300Z,8.68
2023-05-01T23:58:29.246Z,9.48
